Time;durP1;ratioP1;P1;durP2;ratioP2;P2;SDS_P1;SDS_P2;PMS_P1;PMS_P2;Temp;Humidity;BMP_temperature;BMP_pressure;BME280_temperature;BME280_humidity;BME280_pressure;Samples;Min_cycle;Max_cycle;Signal;HPM_P1;HPM_P2
2022/02/28 00:00:24;;;;;;;15.17;11.17;;;;;;;;;;5019835;28;20202;-84
2022/02/28 00:02:50;;;;;;;13.23;10.27;;;;;;;;;;5039216;28;20546;-84
2022/02/28 00:05:16;;;;;;;13.70;8.87;;;;;;;;;;5021828;28;20202;-82
2022/02/28 00:07:43;;;;;;;18.67;11.97;;;;;;;;;;5039035;28;20236;-83
2022/02/28 00:10:09;;;;;;;10.60;9.33;;;;;;;;;;5038600;28;20221;-83
2022/02/28 00:12:36;;;;;;;9.37;8.30;;;;;;;;;;5038974;28;20217;-83
2022/02/28 00:15:03;;;;;;;10.80;9.30;;;;;;;;;;5038366;28;20178;-83
2022/02/28 00:17:29;;;;;;;15.57;11.57;;;;;;;;;;5021250;28;20234;-83
2022/02/28 00:19:55;;;;;;;11.73;9.10;;;;;;;;;;5020677;28;20700;-83
2022/02/28 00:22:21;;;;;;;13.77;9.73;;;;;;;;;;5017192;28;20224;-82
2022/02/28 00:24:47;;;;;;;10.20;9.00;;;;;;;;;;5038051;28;20186;-82
2022/02/28 00:27:13;;;;;;;13.03;9.00;;;;;;;;;;5038224;28;20174;-82
2022/02/28 00:29:40;;;;;;;11.67;9.50;;;;;;;;;;5020240;28;20681;-82
2022/02/28 00:32:06;;;;;;;12.93;9.03;;;;;;;;;;5037523;28;20257;-83
2022/02/28 00:34:32;;;;;;;12.40;9.03;;;;;;;;;;5038313;28;20184;-82
2022/02/28 00:37:00;;;;;;;10.27;8.77;;;;;;;;;;5036973;28;20178;-82
2022/02/28 00:39:26;;;;;;;10.77;8.70;;;;;;;;;;5025327;28;20214;-82
2022/02/28 00:41:52;;;;;;;11.37;9.07;;;;;;;;;;5037504;28;20191;-82
2022/02/28 00:44:18;;;;;;;11.03;8.17;;;;;;;;;;5037342;28;20171;-82
2022/02/28 00:46:44;;;;;;;11.50;8.63;;;;;;;;;;5037564;28;20182;-82
2022/02/28 00:49:10;;;;;;;11.73;8.90;;;;;;;;;;5037152;28;20725;-82
2022/02/28 00:51:36;;;;;;;9.90;8.63;;;;;;;;;;5019238;28;20186;-82
2022/02/28 00:54:03;;;;;;;11.93;8.40;;;;;;;;;;5019160;28;20179;-82
2022/02/28 00:56:29;;;;;;;9.87;8.40;;;;;;;;;;5019545;28;20186;-82
2022/02/28 00:58:55;;;;;;;11.53;8.70;;;;;;;;;;5037093;28;20228;-82
2022/02/28 01:01:21;;;;;;;9.13;8.23;;;;;;;;;;5036661;28;20586;-82
2022/02/28 01:03:47;;;;;;;11.70;8.60;;;;;;;;;;5036783;28;20217;-82
2022/02/28 01:06:13;;;;;;;10.87;8.50;;;;;;;;;;5036451;28;20190;-82
2022/02/28 01:08:39;;;;;;;10.23;8.93;;;;;;;;;;5022453;28;20171;-82
2022/02/28 01:11:05;;;;;;;13.33;9.00;;;;;;;;;;5036221;28;20630;-82
2022/02/28 01:13:31;;;;;;;11.37;9.13;;;;;;;;;;5036575;28;20182;-82
2022/02/28 01:15:57;;;;;;;12.13;8.83;;;;;;;;;;5017799;28;20189;-82
2022/02/28 01:18:23;;;;;;;12.17;9.23;;;;;;;;;;5036076;28;20178;-82
2022/02/28 01:20:51;;;;;;;10.97;8.60;;;;;;;;;;5035947;28;20198;-82
2022/02/28 01:23:17;;;;;;;10.60;8.50;;;;;;;;;;5036151;28;20186;-82
2022/02/28 01:25:43;;;;;;;10.00;8.90;;;;;;;;;;5036680;28;20236;-83
2022/02/28 01:28:09;;;;;;;13.33;9.53;;;;;;;;;;5017547;28;20546;-82
2022/02/28 01:30:35;;;;;;;12.87;9.47;;;;;;;;;;5035855;28;20337;-82
2022/02/28 01:33:01;;;;;;;12.17;9.20;;;;;;;;;;5020260;28;20257;-82
2022/02/28 01:35:27;;;;;;;11.67;8.87;;;;;;;;;;5040322;28;20182;-82
2022/02/28 01:37:53;;;;;;;11.50;9.23;;;;;;;;;;5040170;28;20201;-82
2022/02/28 01:40:19;;;;;;;11.83;9.27;;;;;;;;;;5039823;28;20693;-82
2022/02/28 01:42:46;;;;;;;9.27;8.37;;;;;;;;;;5039822;28;20247;-82
2022/02/28 01:45:13;;;;;;;10.33;8.70;;;;;;;;;;5022046;28;20178;-82
2022/02/28 01:47:40;;;;;;;10.63;8.63;;;;;;;;;;5039783;28;20190;-82
2022/02/28 01:50:06;;;;;;;10.43;8.90;;;;;;;;;;5021777;28;20198;-82
2022/02/28 01:52:32;;;;;;;10.47;8.80;;;;;;;;;;5039755;28;20668;-82
2022/02/28 01:54:58;;;;;;;11.27;8.70;;;;;;;;;;5039631;28;20187;-82
2022/02/28 01:57:24;;;;;;;10.33;8.40;;;;;;;;;;5039669;28;20182;-82
2022/02/28 01:59:51;;;;;;;11.10;8.67;;;;;;;;;;5039746;28;20217;-82
2022/02/28 02:02:17;;;;;;;9.73;8.37;;;;;;;;;;5039685;28;20206;-81
2022/02/28 02:04:43;;;;;;;10.73;8.50;;;;;;;;;;5039598;28;20189;-82
2022/02/28 02:07:10;;;;;;;10.23;8.57;;;;;;;;;;5038886;28;20556;-82
2022/02/28 02:09:36;;;;;;;10.57;8.60;;;;;;;;;;5038951;28;20700;-82
2022/02/28 02:12:04;;;;;;;10.87;8.83;;;;;;;;;;5039288;28;20187;-82
2022/02/28 02:14:32;;;;;;;11.50;8.97;;;;;;;;;;5039581;28;20232;-82
2022/02/28 02:16:58;;;;;;;11.00;8.90;;;;;;;;;;5039002;28;20266;-82
2022/02/28 02:19:24;;;;;;;9.90;8.47;;;;;;;;;;5031093;28;20206;-82
2022/02/28 02:21:50;;;;;;;12.57;8.83;;;;;;;;;;5017973;28;20236;-82
2022/02/28 02:24:16;;;;;;;10.30;8.87;;;;;;;;;;5038465;28;20669;-81
2022/02/28 02:26:42;;;;;;;10.83;8.57;;;;;;;;;;5021854;28;20186;-80
2022/02/28 02:29:08;;;;;;;11.23;8.80;;;;;;;;;;5039335;28;20197;-82
2022/02/28 02:31:34;;;;;;;13.43;9.27;;;;;;;;;;5039376;28;20193;-82
2022/02/28 02:34:00;;;;;;;10.50;8.60;;;;;;;;;;5034260;28;20190;-82
2022/02/28 02:36:26;;;;;;;12.47;9.00;;;;;;;;;;5029564;28;20183;-82
2022/02/28 02:38:53;;;;;;;11.83;8.57;;;;;;;;;;5025659;28;20171;-82
2022/02/28 02:41:19;;;;;;;12.63;9.10;;;;;;;;;;5019435;28;20178;-82
2022/02/28 02:43:46;;;;;;;12.27;9.33;;;;;;;;;;5036366;28;20205;-82
2022/02/28 02:46:12;;;;;;;11.93;9.00;;;;;;;;;;5037786;28;20545;-82
2022/02/28 02:48:38;;;;;;;12.07;9.57;;;;;;;;;;5012362;28;20207;-82
2022/02/28 02:51:04;;;;;;;11.73;9.17;;;;;;;;;;5037285;28;20855;-82
2022/02/28 02:53:30;;;;;;;10.87;9.00;;;;;;;;;;5037914;28;20187;-82
2022/02/28 02:55:56;;;;;;;10.37;8.97;;;;;;;;;;5037623;28;20280;-82
2022/02/28 02:58:22;;;;;;;11.30;9.13;;;;;;;;;;5020751;28;20233;-82
2022/02/28 03:00:51;;;;;;;12.80;9.17;;;;;;;;;;5038403;28;20210;-82
2022/02/28 03:03:19;;;;;;;13.83;9.27;;;;;;;;;;5020480;28;20284;-81
2022/02/28 03:05:45;;;;;;;13.07;9.30;;;;;;;;;;5037892;28;20171;-82
2022/02/28 03:08:11;;;;;;;11.73;8.87;;;;;;;;;;5036297;28;20194;-82
2022/02/28 03:10:37;;;;;;;10.53;8.77;;;;;;;;;;5021039;28;20705;-82
2022/02/28 03:13:03;;;;;;;11.90;8.90;;;;;;;;;;5038791;28;20217;-82
2022/02/28 03:15:29;;;;;;;11.40;8.83;;;;;;;;;;5038744;28;20189;-82
2022/02/28 03:17:55;;;;;;;11.83;9.17;;;;;;;;;;5038514;28;20182;-82
2022/02/28 03:20:22;;;;;;;10.93;8.20;;;;;;;;;;5038319;28;20202;-81
2022/02/28 03:22:49;;;;;;;12.93;9.87;;;;;;;;;;5020174;28;20202;-82
2022/02/28 03:25:15;;;;;;;10.37;8.70;;;;;;;;;;5037568;28;20194;-83
2022/02/28 03:27:41;;;;;;;12.93;10.00;;;;;;;;;;5034197;28;20552;-82
2022/02/28 03:30:08;;;;;;;13.97;9.83;;;;;;;;;;5035953;28;20233;-83
2022/02/28 03:32:34;;;;;;;13.93;9.97;;;;;;;;;;5036913;28;20185;-83
2022/02/28 03:35:01;;;;;;;15.30;10.47;;;;;;;;;;5037045;28;20189;-82
2022/02/28 03:37:27;;;;;;;18.67;10.70;;;;;;;;;;5020010;28;20213;-82
2022/02/28 03:39:53;;;;;;;13.87;10.57;;;;;;;;;;5038003;28;20209;-82
2022/02/28 03:42:19;;;;;;;13.03;9.87;;;;;;;;;;5037125;28;20677;-83
2022/02/28 03:44:45;;;;;;;13.80;10.20;;;;;;;;;;5037073;28;20192;-82
2022/02/28 03:47:11;;;;;;;12.23;10.17;;;;;;;;;;5019952;28;20185;-82
2022/02/28 03:49:37;;;;;;;13.17;10.40;;;;;;;;;;5037332;28;20202;-81
2022/02/28 03:52:03;;;;;;;11.27;8.97;;;;;;;;;;5037494;28;20309;-82
2022/02/28 03:54:29;;;;;;;13.67;10.00;;;;;;;;;;5020081;28;20189;-82
2022/02/28 03:56:55;;;;;;;13.93;9.60;;;;;;;;;;5019385;28;20183;-82
2022/02/28 03:59:21;;;;;;;12.40;10.20;;;;;;;;;;5037395;28;20685;-82
2022/02/28 04:01:47;;;;;;;13.70;10.53;;;;;;;;;;5019525;28;20178;-81
2022/02/28 04:04:13;;;;;;;15.03;10.63;;;;;;;;;;5036539;28;20181;-79
2022/02/28 04:06:41;;;;;;;16.07;9.87;;;;;;;;;;5037385;28;20170;-82
2022/02/28 04:09:07;;;;;;;13.57;10.10;;;;;;;;;;5037057;28;21043;-82
2022/02/28 04:11:34;;;;;;;14.20;9.97;;;;;;;;;;5037303;28;20167;-82
2022/02/28 04:14:00;;;;;;;13.00;10.10;;;;;;;;;;5019364;28;20187;-82
2022/02/28 04:16:26;;;;;;;13.50;10.10;;;;;;;;;;5036788;28;20637;-82
2022/02/28 04:18:52;;;;;;;14.30;10.20;;;;;;;;;;5037202;28;20182;-81
2022/02/28 04:21:18;;;;;;;14.07;10.37;;;;;;;;;;5036614;28;20313;-82
2022/02/28 04:23:44;;;;;;;13.20;9.80;;;;;;;;;;5018661;28;20198;-82
2022/02/28 04:26:10;;;;;;;13.87;10.37;;;;;;;;;;5038110;28;20240;-83
2022/02/28 04:28:36;;;;;;;13.27;10.47;;;;;;;;;;5019411;28;20178;-82
2022/02/28 04:31:02;;;;;;;15.60;10.30;;;;;;;;;;5038306;28;20199;-82
2022/02/28 04:33:28;;;;;;;14.67;10.73;;;;;;;;;;5020075;28;20210;-82
2022/02/28 04:35:54;;;;;;;13.13;9.90;;;;;;;;;;5037814;28;20554;-82
2022/02/28 04:38:21;;;;;;;14.67;10.03;;;;;;;;;;5038024;28;20189;-82
2022/02/28 04:40:47;;;;;;;16.80;10.50;;;;;;;;;;5037474;28;20209;-82
2022/02/28 04:43:13;;;;;;;14.60;9.97;;;;;;;;;;5037611;28;20190;-82
2022/02/28 04:45:39;;;;;;;15.57;10.37;;;;;;;;;;5037294;28;20560;-82
2022/02/28 04:48:05;;;;;;;14.10;9.30;;;;;;;;;;5034277;28;20181;-82
2022/02/28 04:50:31;;;;;;;14.80;10.20;;;;;;;;;;5013752;28;20281;-82
2022/02/28 04:52:58;;;;;;;17.90;10.10;;;;;;;;;;5037543;28;20178;-82
2022/02/28 04:55:24;;;;;;;12.63;9.40;;;;;;;;;;5019301;28;20211;-82
2022/02/28 04:57:50;;;;;;;12.93;9.83;;;;;;;;;;5037527;28;20550;-82
2022/02/28 05:00:16;;;;;;;15.60;11.00;;;;;;;;;;5035075;28;20633;-82
2022/02/28 05:02:42;;;;;;;15.50;10.17;;;;;;;;;;5032943;28;20562;-82
2022/02/28 05:05:08;;;;;;;15.63;11.00;;;;;;;;;;5018803;28;20185;-83
2022/02/28 05:07:34;;;;;;;20.60;11.40;;;;;;;;;;5028191;28;20213;-82
2022/02/28 05:10:01;;;;;;;11.67;10.03;;;;;;;;;;5017866;28;20218;-82
2022/02/28 05:12:27;;;;;;;14.70;10.60;;;;;;;;;;5036044;28;20217;-81
2022/02/28 05:14:53;;;;;;;13.27;10.17;;;;;;;;;;5036224;28;20184;-82
2022/02/28 05:17:19;;;;;;;13.67;10.53;;;;;;;;;;5018808;28;20182;-81
2022/02/28 05:19:45;;;;;;;16.57;11.20;;;;;;;;;;5036660;28;20228;-82
2022/02/28 05:22:11;;;;;;;13.10;10.67;;;;;;;;;;5036649;28;20612;-82
2022/02/28 05:24:37;;;;;;;14.17;11.43;;;;;;;;;;5019226;28;20189;-82
2022/02/28 05:27:05;;;;;;;13.07;9.87;;;;;;;;;;5036737;28;20185;-81
2022/02/28 05:29:31;;;;;;;31.63;15.93;;;;;;;;;;5036283;28;20203;-82
2022/02/28 05:31:57;;;;;;;28.60;13.97;;;;;;;;;;5019025;28;20185;-81
2022/02/28 05:34:23;;;;;;;15.90;10.27;;;;;;;;;;5036266;28;20546;-81
2022/02/28 05:36:49;;;;;;;17.80;10.93;;;;;;;;;;5036703;28;20257;-81
2022/02/28 05:39:16;;;;;;;16.33;10.43;;;;;;;;;;5036770;28;20230;-81
2022/02/28 05:41:42;;;;;;;18.57;11.17;;;;;;;;;;5018383;28;20184;-81
2022/02/28 05:44:08;;;;;;;20.37;13.07;;;;;;;;;;5035674;28;20184;-81
2022/02/28 05:46:34;;;;;;;14.83;11.27;;;;;;;;;;5026083;28;20684;-82
2022/02/28 05:49:00;;;;;;;16.10;11.27;;;;;;;;;;5014449;28;20295;-82
2022/02/28 05:51:26;;;;;;;17.77;11.70;;;;;;;;;;5018749;28;20175;-82
2022/02/28 05:53:52;;;;;;;15.53;11.00;;;;;;;;;;5036525;28;20189;-84
2022/02/28 05:56:19;;;;;;;15.73;11.10;;;;;;;;;;5037040;28;20204;-82
2022/02/28 05:58:45;;;;;;;14.73;10.53;;;;;;;;;;5036460;28;20183;-82
2022/02/28 06:01:11;;;;;;;17.63;12.87;;;;;;;;;;5018461;28;20202;-83
2022/02/28 06:03:37;;;;;;;15.27;10.60;;;;;;;;;;5035805;28;20202;-82
2022/02/28 06:06:03;;;;;;;15.67;11.47;;;;;;;;;;5017753;28;20209;-82
2022/02/28 06:08:29;;;;;;;27.87;12.97;;;;;;;;;;5004216;28;20223;-82
2022/02/28 06:10:56;;;;;;;16.40;10.93;;;;;;;;;;5035282;28;20648;-81
2022/02/28 06:13:22;;;;;;;16.63;10.53;;;;;;;;;;5032485;28;20197;-82
2022/02/28 06:15:48;;;;;;;15.03;10.73;;;;;;;;;;5018431;28;20185;-82
2022/02/28 06:18:14;;;;;;;13.67;10.17;;;;;;;;;;5032475;28;20190;-81
2022/02/28 06:20:41;;;;;;;15.07;10.50;;;;;;;;;;5010752;28;20293;-81
2022/02/28 06:23:10;;;;;;;18.67;10.77;;;;;;;;;;5018263;28;20202;-82
2022/02/28 06:25:36;;;;;;;17.40;11.33;;;;;;;;;;5038349;28;20197;-82
2022/02/28 06:28:03;;;;;;;15.93;11.20;;;;;;;;;;5039055;28;20177;-82
2022/02/28 06:30:29;;;;;;;18.47;11.23;;;;;;;;;;5039637;28;20264;-82
2022/02/28 06:32:55;;;;;;;15.60;10.07;;;;;;;;;;5039372;28;20185;-82
2022/02/28 06:35:22;;;;;;;18.67;11.37;;;;;;;;;;5039522;28;20199;-82
2022/02/28 06:37:48;;;;;;;15.17;10.70;;;;;;;;;;5004987;28;20210;-81
2022/02/28 06:40:14;;;;;;;16.03;11.07;;;;;;;;;;5039148;28;20212;-82
2022/02/28 06:42:41;;;;;;;15.87;10.43;;;;;;;;;;5038619;28;20561;-82
2022/02/28 06:45:07;;;;;;;20.67;11.13;;;;;;;;;;5038614;28;20235;-82
2022/02/28 06:47:33;;;;;;;15.13;10.63;;;;;;;;;;5037851;28;20256;-82
2022/02/28 06:49:59;;;;;;;15.00;10.53;;;;;;;;;;5017774;28;20189;-81
2022/02/28 06:52:25;;;;;;;20.50;11.20;;;;;;;;;;5037896;28;20190;-82
2022/02/28 06:54:54;;;;;;;18.93;11.63;;;;;;;;;;5037490;28;20256;-83
2022/02/28 06:57:20;;;;;;;17.30;12.13;;;;;;;;;;5037515;28;20186;-82
2022/02/28 06:59:46;;;;;;;18.83;12.77;;;;;;;;;;5017961;28;20206;-83
2022/02/28 07:02:12;;;;;;;19.07;12.20;;;;;;;;;;5037594;28;20613;-82
2022/02/28 07:04:38;;;;;;;17.20;12.50;;;;;;;;;;5011280;28;20190;-82
2022/02/28 07:07:05;;;;;;;19.50;12.80;;;;;;;;;;5025314;28;20181;-82
2022/02/28 07:09:31;;;;;;;16.97;12.80;;;;;;;;;;5037684;28;20695;-82
2022/02/28 07:11:57;;;;;;;19.93;13.63;;;;;;;;;;5038379;28;20181;-82
2022/02/28 07:14:23;;;;;;;23.47;13.40;;;;;;;;;;5036797;28;20642;-82
2022/02/28 07:16:50;;;;;;;17.57;12.70;;;;;;;;;;5016282;28;20182;-83
2022/02/28 07:19:16;;;;;;;17.87;12.87;;;;;;;;;;5019140;28;20563;-82
2022/02/28 07:21:42;;;;;;;19.70;12.43;;;;;;;;;;5037240;28;20217;-81
2022/02/28 07:24:08;;;;;;;18.87;12.87;;;;;;;;;;5037551;28;20236;-82
2022/02/28 07:26:34;;;;;;;17.27;12.73;;;;;;;;;;5037228;28;20178;-82
2022/02/28 07:29:01;;;;;;;20.60;12.37;;;;;;;;;;5019438;28;20182;-82
2022/02/28 07:31:27;;;;;;;20.57;12.67;;;;;;;;;;5037227;28;20178;-82
2022/02/28 07:33:53;;;;;;;17.80;13.00;;;;;;;;;;5037447;28;20174;-81
2022/02/28 07:36:19;;;;;;;18.33;13.43;;;;;;;;;;5018939;28;20194;-82
2022/02/28 07:38:45;;;;;;;16.03;12.07;;;;;;;;;;5037161;28;20178;-81
2022/02/28 07:41:11;;;;;;;20.13;13.07;;;;;;;;;;5019800;28;20209;-81
2022/02/28 07:43:37;;;;;;;17.20;12.30;;;;;;;;;;5023324;28;20202;-81
2022/02/28 07:46:03;;;;;;;19.43;12.40;;;;;;;;;;5018982;28;20546;-81
2022/02/28 07:48:29;;;;;;;18.60;12.10;;;;;;;;;;5036258;28;20178;-81
2022/02/28 07:50:55;;;;;;;19.60;12.20;;;;;;;;;;5019318;28;20221;-83
2022/02/28 07:53:23;;;;;;;18.73;12.40;;;;;;;;;;5037135;28;20186;-83
2022/02/28 07:55:49;;;;;;;17.47;12.20;;;;;;;;;;5036897;28;20178;-82
2022/02/28 07:58:15;;;;;;;23.37;13.83;;;;;;;;;;5037604;28;20186;-82
2022/02/28 08:00:41;;;;;;;19.53;13.50;;;;;;;;;;5035483;28;20209;-83
2022/02/28 08:03:07;;;;;;;19.67;13.60;;;;;;;;;;5035659;28;20207;-82
2022/02/28 08:05:33;;;;;;;18.13;13.00;;;;;;;;;;5032693;28;20176;-82
2022/02/28 08:07:59;;;;;;;19.43;13.23;;;;;;;;;;5030165;28;20189;-83
2022/02/28 08:10:25;;;;;;;20.10;14.23;;;;;;;;;;5036394;28;20210;-82
2022/02/28 08:12:51;;;;;;;23.60;13.30;;;;;;;;;;5018605;28;20186;-83
2022/02/28 08:15:17;;;;;;;19.87;13.50;;;;;;;;;;5036926;28;20277;-82
2022/02/28 08:17:45;;;;;;;20.93;14.20;;;;;;;;;;5036998;28;20182;-83
2022/02/28 08:20:11;;;;;;;22.60;14.13;;;;;;;;;;5018936;28;20217;-82
2022/02/28 08:22:37;;;;;;;22.33;14.80;;;;;;;;;;5037112;28;20272;-83
2022/02/28 08:25:03;;;;;;;18.53;13.80;;;;;;;;;;5036223;28;20584;-82
2022/02/28 08:27:29;;;;;;;21.73;14.67;;;;;;;;;;5033555;28;20178;-83
2022/02/28 08:29:55;;;;;;;19.67;14.10;;;;;;;;;;5034232;28;20202;-82
2022/02/28 08:32:21;;;;;;;19.40;14.17;;;;;;;;;;5035523;28;20178;-83
2022/02/28 08:34:47;;;;;;;21.77;13.83;;;;;;;;;;5033591;28;20186;-82
2022/02/28 08:37:13;;;;;;;19.50;13.90;;;;;;;;;;5011766;28;20583;-83
2022/02/28 08:39:39;;;;;;;20.07;12.80;;;;;;;;;;5028961;28;20198;-83
2022/02/28 08:42:06;;;;;;;19.90;13.70;;;;;;;;;;5025878;28;20202;-83
2022/02/28 08:44:32;;;;;;;15.03;12.90;;;;;;;;;;5023875;28;20274;-82
2022/02/28 08:46:58;;;;;;;18.13;12.63;;;;;;;;;;5035530;28;20540;-83
2022/02/28 08:49:24;;;;;;;22.47;14.83;;;;;;;;;;5034396;28;20688;-82
2022/02/28 08:51:52;;;;;;;22.00;13.97;;;;;;;;;;5039173;28;20193;-83
2022/02/28 08:54:18;;;;;;;17.60;12.37;;;;;;;;;;5037772;28;20201;-83
2022/02/28 08:56:44;;;;;;;17.90;13.30;;;;;;;;;;5036551;28;20170;-82
2022/02/28 08:59:10;;;;;;;21.57;13.50;;;;;;;;;;5036715;28;20344;-83
2022/02/28 09:01:37;;;;;;;17.87;12.63;;;;;;;;;;5035842;28;20190;-82
2022/02/28 09:04:03;;;;;;;19.77;13.07;;;;;;;;;;5036528;28;20217;-81
2022/02/28 09:06:29;;;;;;;17.60;13.17;;;;;;;;;;5036525;28;20608;-82
2022/02/28 09:08:55;;;;;;;17.30;12.30;;;;;;;;;;5036120;28;20210;-82
2022/02/28 09:11:22;;;;;;;19.77;12.43;;;;;;;;;;5011856;28;20186;-84
2022/02/28 09:13:49;;;;;;;20.67;13.17;;;;;;;;;;5034434;28;20550;-82
2022/02/28 09:16:15;;;;;;;18.63;12.90;;;;;;;;;;5032472;28;20186;-82
2022/02/28 09:18:41;;;;;;;18.03;12.27;;;;;;;;;;5082949;22;20225;-82
2022/02/28 09:21:07;;;;;;;15.83;12.10;;;;;;;;;;5073662;28;20552;-82
2022/02/28 09:23:33;;;;;;;22.37;13.27;;;;;;;;;;5056680;28;20215;-81
2022/02/28 09:26:00;;;;;;;17.97;12.23;;;;;;;;;;5057166;28;20178;-82
2022/02/28 09:28:26;;;;;;;15.03;11.93;;;;;;;;;;5079986;28;20672;-82
2022/02/28 09:30:52;;;;;;;16.97;12.63;;;;;;;;;;5076477;28;20184;-81
2022/02/28 09:33:27;;;;;;;14.80;11.73;;;;;;;;;;5080230;28;20276;-81
2022/02/28 09:35:54;;;;;;;18.10;12.63;;;;;;;;;;5079146;28;20180;-80
2022/02/28 09:38:22;;;;;;;14.10;12.03;;;;;;;;;;5071591;28;20232;-80
2022/02/28 09:40:50;;;;;;;14.97;11.13;;;;;;;;;;5078464;28;20185;-81
2022/02/28 09:43:16;;;;;;;12.57;11.10;;;;;;;;;;5078497;28;20741;-81
2022/02/28 09:45:43;;;;;;;16.17;12.50;;;;;;;;;;5078229;28;20221;-80
2022/02/28 09:50:52;;;;;;;16.93;12.30;;;;;;;;;;5042093;28;20207;-79
2022/02/28 09:53:56;;;;;;;16.27;11.87;;;;;;;;;;5050338;28;20644;-79
2022/02/28 09:56:35;;;;;;;15.93;12.13;;;;;;;;;;5027909;28;20198;-80
2022/02/28 09:59:30;;;;;;;16.33;12.20;;;;;;;;;;5045822;28;20355;-80
2022/02/28 10:02:19;;;;;;;17.23;12.30;;;;;;;;;;5026099;28;20270;-79
2022/02/28 10:05:10;;;;;;;12.03;10.73;;;;;;;;;;5041073;28;20267;-80
2022/02/28 10:20:22;;;;;;;13.37;11.50;;;;;;;;;;5032030;28;20656;-81
2022/02/28 10:26:07;;;;;;;15.33;11.83;;;;;;;;;;4951036;28;20202;-80
2022/02/28 10:28:58;;;;;;;15.93;11.77;;;;;;;;;;4970289;28;20223;-79
2022/02/28 10:31:44;;;;;;;;;;;;;;;;;;;;;
2022/02/28 10:34:27;;;;;;;15.67;11.17;;;;;;;;;;5037227;28;20242;-80
2022/02/28 10:37:06;;;;;;;15.23;11.20;;;;;;;;;;5042742;28;20200;-80
2022/02/28 10:39:39;;;;;;;12.00;10.17;;;;;;;;;;5042463;28;20207;-81
2022/02/28 10:42:22;;;;;;;16.13;11.57;;;;;;;;;;5044316;28;20582;-80
2022/02/28 10:44:50;;;;;;;16.93;11.63;;;;;;;;;;5044720;28;20556;-85
2022/02/28 10:47:53;;;;;;;15.33;12.47;;;;;;;;;;5045433;28;20201;-80
2022/02/28 10:53:23;;;;;;;14.60;11.17;;;;;;;;;;5042890;28;20189;-82
2022/02/28 10:55:50;;;;;;;16.30;11.57;;;;;;;;;;5042568;28;20526;-80
2022/02/28 10:58:27;;;;;;;12.73;10.17;;;;;;;;;;5042292;28;20217;-80
2022/02/28 11:00:54;;;;;;;14.13;11.07;;;;;;;;;;5041218;28;20185;-79
2022/02/28 11:03:20;;;;;;;11.33;10.03;;;;;;;;;;5041943;28;20198;-80
2022/02/28 11:06:04;;;;;;;11.70;10.47;;;;;;;;;;5023954;28;20174;-80
2022/02/28 11:08:40;;;;;;;15.20;10.20;;;;;;;;;;5041612;28;20212;-80
2022/02/28 11:11:14;;;;;;;13.13;10.87;;;;;;;;;;5041974;28;20184;-81
2022/02/28 11:13:44;;;;;;;15.73;10.43;;;;;;;;;;5041242;28;20229;-81
2022/02/28 11:16:13;;;;;;;13.70;10.03;;;;;;;;;;5042245;28;20182;-81
2022/02/28 11:18:39;;;;;;;12.57;10.47;;;;;;;;;;5041743;28;20199;-81
2022/02/28 11:21:07;;;;;;;12.77;10.03;;;;;;;;;;5023397;28;20185;-80
2022/02/28 11:23:34;;;;;;;13.47;10.30;;;;;;;;;;5040354;28;20583;-82
2022/02/28 11:26:00;;;;;;;11.40;10.27;;;;;;;;;;5017337;28;20193;-81
2022/02/28 11:28:26;;;;;;;12.63;10.47;;;;;;;;;;5042561;28;20671;-83
2022/02/28 11:31:01;;;;;;;10.90;9.87;;;;;;;;;;5042442;28;20171;-81
2022/02/28 11:33:27;;;;;;;15.20;10.77;;;;;;;;;;5043369;28;20235;-81
2022/02/28 11:35:54;;;;;;;11.77;10.33;;;;;;;;;;5023997;28;20282;-82
2022/02/28 11:38:22;;;;;;;13.93;10.87;;;;;;;;;;5040509;28;20213;-82
2022/02/28 11:40:50;;;;;;;15.07;11.67;;;;;;;;;;5042597;28;20174;-82
2022/02/28 11:43:23;;;;;;;12.27;10.93;;;;;;;;;;5043920;28;20226;-81
2022/02/28 11:45:52;;;;;;;13.70;10.83;;;;;;;;;;5024688;28;20182;-81
2022/02/28 11:48:38;;;;;;;14.30;11.17;;;;;;;;;;5033198;28;20657;-81
2022/02/28 11:51:04;;;;;;;13.53;10.87;;;;;;;;;;5040776;28;20182;-82
2022/02/28 11:53:49;;;;;;;14.50;11.60;;;;;;;;;;5041383;28;20190;-82
2022/02/28 11:56:18;;;;;;;14.27;11.67;;;;;;;;;;5041764;28;20668;-82
2022/02/28 11:58:54;;;;;;;14.83;11.37;;;;;;;;;;5042077;28;20207;-84
2022/02/28 12:01:26;;;;;;;12.37;11.07;;;;;;;;;;5042834;28;20182;-83
2022/02/28 12:04:11;;;;;;;12.37;10.93;;;;;;;;;;5044073;28;20224;-82
2022/02/28 12:06:55;;;;;;;14.97;11.37;;;;;;;;;;5026012;28;20321;-82
2022/02/28 12:09:33;;;;;;;11.80;10.60;;;;;;;;;;5038352;28;20258;-82
2022/02/28 12:12:12;;;;;;;13.07;10.67;;;;;;;;;;5040675;28;20205;-83
2022/02/28 12:14:53;;;;;;;12.73;10.73;;;;;;;;;;5023865;28;20535;-82
2022/02/28 12:17:31;;;;;;;12.00;10.10;;;;;;;;;;5036244;28;20222;-82
2022/02/28 12:20:18;;;;;;;14.43;10.10;;;;;;;;;;5040562;28;20202;-82
2022/02/28 12:22:53;;;;;;;13.23;11.10;;;;;;;;;;5042517;28;20200;-82
2022/02/28 12:25:31;;;;;;;14.00;10.33;;;;;;;;;;5027619;28;20174;-81
2022/02/28 12:27:58;;;;;;;12.70;10.83;;;;;;;;;;5039951;28;20278;-80
2022/02/28 12:30:45;;;;;;;11.87;10.57;;;;;;;;;;5041120;28;20175;-81
2022/02/28 12:33:12;;;;;;;15.40;10.40;;;;;;;;;;5040994;28;20202;-82
2022/02/28 12:35:51;;;;;;;12.17;9.43;;;;;;;;;;5043398;28;20213;-81
2022/02/28 12:38:18;;;;;;;12.73;10.13;;;;;;;;;;5044453;28;20288;-82
2022/02/28 12:40:50;;;;;;;10.57;9.47;;;;;;;;;;5025518;28;20176;-81
2022/02/28 12:43:18;;;;;;;12.20;10.40;;;;;;;;;;5041841;28;20253;-82
2022/02/28 12:45:45;;;;;;;13.43;9.60;;;;;;;;;;5043483;28;20168;-81
2022/02/28 12:48:12;;;;;;;12.70;9.80;;;;;;;;;;5043375;28;20193;-82
2022/02/28 12:50:44;;;;;;;12.27;10.50;;;;;;;;;;5025783;28;20203;-82
2022/02/28 12:53:10;;;;;;;11.60;10.00;;;;;;;;;;5042500;28;20179;-82
2022/02/28 12:55:36;;;;;;;11.77;10.57;;;;;;;;;;5042442;28;20190;-82
2022/02/28 12:58:12;;;;;;;12.50;10.47;;;;;;;;;;5042800;28;20202;-81
2022/02/28 13:00:38;;;;;;;11.63;10.40;;;;;;;;;;5042580;28;20186;-82
2022/02/28 13:03:04;;;;;;;11.60;10.47;;;;;;;;;;5043513;28;20203;-82
2022/02/28 13:05:30;;;;;;;11.50;10.40;;;;;;;;;;5042877;28;20179;-82
2022/02/28 13:08:03;;;;;;;12.67;10.50;;;;;;;;;;5037833;28;20558;-82
2022/02/28 13:10:29;;;;;;;11.50;10.23;;;;;;;;;;5042621;28;20180;-83
2022/02/28 13:12:55;;;;;;;12.03;10.70;;;;;;;;;;5018697;28;20275;-82
2022/02/28 13:15:24;;;;;;;15.00;11.47;;;;;;;;;;5040704;28;20181;-82
2022/02/28 13:17:50;;;;;;;13.10;10.40;;;;;;;;;;5036124;28;20640;-83
2022/02/28 13:20:21;;;;;;;12.50;10.47;;;;;;;;;;5042827;28;20201;-83
2022/02/28 13:22:50;;;;;;;11.80;10.60;;;;;;;;;;5043519;28;20198;-83
2022/02/28 13:25:17;;;;;;;11.40;10.17;;;;;;;;;;5039717;28;20186;-81
2022/02/28 13:27:44;;;;;;;13.93;10.27;;;;;;;;;;5041076;28;20199;-82
2022/02/28 13:30:11;;;;;;;11.43;10.23;;;;;;;;;;5025386;28;20328;-82
2022/02/28 13:32:37;;;;;;;12.00;10.80;;;;;;;;;;5038710;28;20180;-82
2022/02/28 13:35:03;;;;;;;13.37;10.87;;;;;;;;;;5021241;28;20208;-82
2022/02/28 13:37:30;;;;;;;11.70;9.57;;;;;;;;;;5023833;28;20679;-83
2022/02/28 13:39:58;;;;;;;13.13;10.17;;;;;;;;;;5024048;28;20314;-83
2022/02/28 13:42:28;;;;;;;11.13;10.07;;;;;;;;;;5024236;28;20199;-83
2022/02/28 13:45:04;;;;;;;12.10;10.87;;;;;;;;;;5015907;28;20184;-82
2022/02/28 13:47:35;;;;;;;11.53;9.57;;;;;;;;;;5021127;28;20210;-83
2022/02/28 13:50:01;;;;;;;10.50;9.50;;;;;;;;;;5015843;28;20285;-83
2022/02/28 13:52:28;;;;;;;11.20;10.00;;;;;;;;;;5048156;28;20184;-82
2022/02/28 13:55:05;;;;;;;10.50;9.47;;;;;;;;;;5034962;28;20180;-81
2022/02/28 13:57:33;;;;;;;11.90;10.07;;;;;;;;;;5049950;28;20196;-80
2022/02/28 14:00:16;;;;;;;9.83;8.83;;;;;;;;;;5049915;28;20271;-79
2022/02/28 14:03:09;;;;;;;10.33;8.63;;;;;;;;;;5047179;28;20715;-82
2022/02/28 14:05:37;;;;;;;11.20;9.47;;;;;;;;;;5039524;28;20195;-83
2022/02/28 14:08:04;;;;;;;10.40;9.27;;;;;;;;;;5023317;28;20199;-82
2022/02/28 14:10:31;;;;;;;10.73;9.63;;;;;;;;;;5022989;28;20203;-82
2022/02/28 14:12:57;;;;;;;10.67;8.97;;;;;;;;;;5037995;28;20179;-82
2022/02/28 14:15:25;;;;;;;11.90;10.30;;;;;;;;;;5041795;28;20187;-84
2022/02/28 14:17:54;;;;;;;9.70;8.63;;;;;;;;;;5022934;28;20199;-83
2022/02/28 14:20:21;;;;;;;10.00;9.10;;;;;;;;;;5023745;28;20187;-82
2022/02/28 14:23:07;;;;;;;10.57;9.47;;;;;;;;;;5041794;28;20206;-83
2022/02/28 14:25:33;;;;;;;13.30;10.33;;;;;;;;;;5025374;28;20584;-83
2022/02/28 14:28:00;;;;;;;11.27;9.47;;;;;;;;;;5023236;28;20209;-83
2022/02/28 14:30:27;;;;;;;9.17;8.37;;;;;;;;;;5023683;28;20249;-83
2022/02/28 14:33:01;;;;;;;10.13;8.40;;;;;;;;;;5022753;28;20581;-82
2022/02/28 14:35:27;;;;;;;13.57;10.07;;;;;;;;;;5041558;28;20704;-83
2022/02/28 14:37:53;;;;;;;9.63;8.57;;;;;;;;;;5041297;28;20209;-83
2022/02/28 14:40:23;;;;;;;11.83;9.23;;;;;;;;;;5027011;28;20252;-83
2022/02/28 14:42:51;;;;;;;15.00;9.77;;;;;;;;;;5046271;28;20231;-83
2022/02/28 14:45:17;;;;;;;14.03;9.27;;;;;;;;;;5028130;28;20191;-82
2022/02/28 14:47:43;;;;;;;27.67;16.80;;;;;;;;;;5027716;28;20200;-82
2022/02/28 14:50:09;;;;;;;9.67;8.23;;;;;;;;;;5030059;28;20651;-83